Terminal Aerodrome Forecast
Issued by NWS

Home | Current Version | Previous Version | Text Only | Print | Product List | Glossary On
Versions: 1 2 3 4 5 6 7 8 9 10 11 12 13 14 15 16 17
174
FTUS43 KDVN 261138
TAFCID
TAF
KCID 261138Z 2612/2712 21016G25KT P6SM OVC070
     FM261800 26014G20KT P6SM SCT080
     FM270000 26005KT P6SM SCT250
     FM270500 VRB03KT P6SM SCT050=

USA.gov is the U.S. government's official web portal to all federal, state and local government web resources and services.